Time;durP1;ratioP1;P1;durP2;ratioP2;P2;SDS_P1;SDS_P2;PMS_P1;PMS_P2;Temp;Humidity;BMP_temperature;BMP_pressure;BME280_temperature;BME280_humidity;BME280_pressure;Samples;Min_cycle;Max_cycle;Signal;HPM_P1;HPM_P2
2023/05/22 00:00:16;;;;;;;0.40;0.40;;;;;;;15.94;81.33;96488.03;29396;199;63019;-54
2023/05/22 00:00:47;;;;;;;0.40;0.40;;;;;;;15.93;81.61;96492.69;29396;267;63004;-53
2023/05/22 00:01:22;;;;;;;0.40;0.40;;;;;;;15.91;81.44;96489.50;29396;230;63012;-55
2023/05/22 00:01:55;;;;;;;0.40;0.40;;;;;;;15.91;81.53;96488.69;29396;238;63004;-55
2023/05/22 00:02:27;;;;;;;0.40;0.40;;;;;;;15.91;81.99;96494.16;29396;206;63009;-55
2023/05/22 00:02:59;;;;;;;0.40;0.40;;;;;;;15.90;81.55;96487.87;29396;203;63004;-54
2023/05/22 00:03:31;;;;;;;0.40;0.40;;;;;;;15.90;81.78;96492.56;29396;219;63009;-53
2023/05/22 00:04:04;;;;;;;0.40;0.40;;;;;;;15.89;81.79;96488.22;29396;334;63005;-53
2023/05/22 00:04:35;;;;;;;0.40;0.40;;;;;;;15.89;81.71;96485.50;29395;207;64014;-54
2023/05/22 00:05:10;;;;;;;0.50;0.50;;;;;;;15.88;81.85;96487.44;29396;212;63005;-54
2023/05/22 00:05:41;;;;;;;0.50;0.50;;;;;;;15.88;81.85;96484.69;29396;214;63009;-54
2023/05/22 00:06:17;;;;;;;0.50;0.50;;;;;;;15.87;81.80;96488.56;29396;333;63011;-54
2023/05/22 00:06:50;;;;;;;0.40;0.40;;;;;;;15.87;82.15;96487.75;29396;240;63009;-53
2023/05/22 00:07:23;;;;;;;0.50;0.50;;;;;;;15.86;81.99;96486.97;29396;203;63005;-54
2023/05/22 00:07:54;;;;;;;0.40;0.40;;;;;;;15.87;82.08;96494.03;29395;199;64013;-55
2023/05/22 00:08:26;;;;;;;0.50;0.50;;;;;;;15.86;82.03;96488.91;29396;205;63004;-53
2023/05/22 00:08:57;;;;;;;0.40;0.40;;;;;;;15.86;81.89;96486.16;29396;210;63018;-54
2023/05/22 00:09:28;;;;;;;0.40;0.40;;;;;;;15.84;82.25;96488.44;29396;259;63008;-54
2023/05/22 00:10:00;;;;;;;0.47;0.47;;;;;;;15.84;82.23;96488.44;29396;292;63009;-53
2023/05/22 00:10:31;;;;;;;0.40;0.40;;;;;;;15.82;82.28;96486.03;29396;229;63004;-54
2023/05/22 00:11:03;;;;;;;0.40;0.40;;;;;;;15.81;82.30;96489.91;29396;285;63009;-53
2023/05/22 00:11:35;;;;;;;0.40;0.40;;;;;;;15.80;82.46;96482.84;29397;227;63005;-54
2023/05/22 00:12:08;;;;;;;0.40;0.40;;;;;;;15.80;82.44;96485.56;29397;207;63009;-53
2023/05/22 00:12:42;;;;;;;0.40;0.40;;;;;;;15.77;82.21;96472.56;29396;228;64009;-53
2023/05/22 00:13:14;;;;;;;0.47;0.47;;;;;;;15.77;82.46;96478.03;29397;295;63009;-53
2023/05/22 00:13:45;;;;;;;0.50;0.50;;;;;;;15.76;82.66;96487.37;29397;275;63005;-53
2023/05/22 00:14:17;;;;;;;0.50;0.50;;;;;;;15.75;82.35;96483.03;29397;234;63009;-54
2023/05/22 00:14:52;;;;;;;0.40;0.40;;;;;;;15.75;82.48;96485.78;29397;220;63005;-54
2023/05/22 00:15:24;;;;;;;0.40;0.40;;;;;;;15.73;82.69;96477.09;29395;202;64013;-53
2023/05/22 00:15:57;;;;;;;0.40;0.40;;;;;;;15.72;82.39;96475.50;29397;207;63004;-53
2023/05/22 00:16:28;;;;;;;0.40;0.40;;;;;;;15.72;82.75;96480.97;29397;292;63009;-53
2023/05/22 00:16:59;;;;;;;0.40;0.40;;;;;;;15.69;82.75;96476.16;29397;274;63004;-53
2023/05/22 00:17:30;;;;;;;0.40;0.40;;;;;;;15.68;82.83;96480.03;29397;279;63016;-54
2023/05/22 00:18:02;;;;;;;0.40;0.40;;;;;;;15.65;82.93;96481.50;29397;233;63004;-54
2023/05/22 00:18:34;;;;;;;0.40;0.40;;;;;;;15.64;82.91;96479.09;29397;240;63009;-54
2023/05/22 00:19:06;;;;;;;0.47;0.47;;;;;;;15.62;82.94;96470.44;29397;255;63005;-58
2023/05/22 00:19:37;;;;;;;0.40;0.40;;;;;;;15.62;83.12;96475.91;29397;211;63009;-58
2023/05/22 00:20:09;;;;;;;0.40;0.40;;;;;;;15.62;83.41;96484.09;29396;203;64009;-53
2023/05/22 00:20:41;;;;;;;0.40;0.40;;;;;;;15.60;83.52;96481.69;29397;214;63009;-54
2023/05/22 00:21:15;;;;;;;0.40;0.40;;;;;;;15.60;83.21;96484.44;29397;207;63005;-53
2023/05/22 00:21:47;;;;;;;0.40;0.40;;;;;;;15.59;83.38;96476.59;29397;233;63009;-53
2023/05/22 00:22:18;;;;;;;0.40;0.40;;;;;;;15.58;83.41;96475.00;29397;220;63005;-53
2023/05/22 00:22:50;;;;;;;0.40;0.40;;;;;;;15.58;83.32;96478.53;29396;216;64013;-54
2023/05/22 00:23:21;;;;;;;0.40;0.40;;;;;;;15.55;83.66;96470.97;29397;209;63004;-54
2023/05/22 00:23:52;;;;;;;0.40;0.40;;;;;;;15.55;83.47;96481.09;29397;209;63009;-54
2023/05/22 00:24:24;;;;;;;0.40;0.40;;;;;;;15.54;83.78;96468.56;29397;214;63004;-58
2023/05/22 00:24:58;;;;;;;0.50;0.50;;;;;;;15.53;83.81;96475.16;29395;202;64013;-58
2023/05/22 00:25:30;;;;;;;0.50;0.50;;;;;;;15.51;83.91;96471.97;29397;198;63008;-53
2023/05/22 00:26:01;;;;;;;0.50;0.50;;;;;;;15.50;83.79;96478.56;29395;320;64014;-53
2023/05/22 00:26:32;;;;;;;0.40;0.40;;;;;;;15.49;83.85;96476.97;29397;206;63010;-53
2023/05/22 00:27:04;;;;;;;0.50;0.50;;;;;;;15.46;84.33;96467.50;29396;263;63009;-54
2023/05/22 00:27:36;;;;;;;0.40;0.40;;;;;;;15.45;84.06;96473.28;29396;239;63005;-54
2023/05/22 00:28:07;;;;;;;0.40;0.40;;;;;;;15.44;84.36;96472.50;29396;214;63009;-54
2023/05/22 00:28:38;;;;;;;0.40;0.40;;;;;;;15.43;84.11;96471.69;29396;215;63005;-54
2023/05/22 00:29:10;;;;;;;0.40;0.40;;;;;;;15.43;84.56;96468.97;29396;246;63009;-58
2023/05/22 00:29:41;;;;;;;0.40;0.40;;;;;;;15.42;84.63;96472.03;29396;220;63005;-57
2023/05/22 00:30:13;;;;;;;0.40;0.40;;;;;;;15.41;84.33;96471.22;29395;239;64013;-54
2023/05/22 00:30:44;;;;;;;0.40;0.40;;;;;;;15.40;84.82;96472.37;29396;220;63004;-54
2023/05/22 00:31:19;;;;;;;0.40;0.40;;;;;;;15.39;84.77;96470.75;29396;214;63009;-58
2023/05/22 00:31:50;;;;;;;0.40;0.40;;;;;;;15.39;84.81;96468.03;29396;220;63004;-53
2023/05/22 00:32:21;;;;;;;0.47;0.47;;;;;;;15.38;84.82;96476.56;29396;216;63009;-58
2023/05/22 00:32:52;;;;;;;0.50;0.50;;;;;;;15.38;84.59;96477.34;29395;210;64004;-54
2023/05/22 00:33:24;;;;;;;0.40;0.40;;;;;;;15.38;84.67;96480.09;29396;237;63008;-53
2023/05/22 00:33:55;;;;;;;0.40;0.40;;;;;;;15.38;84.94;96473.81;29396;218;63005;-54
2023/05/22 00:34:26;;;;;;;0.40;0.40;;;;;;;15.37;84.68;96475.75;29396;262;63009;-53
2023/05/22 00:34:57;;;;;;;0.40;0.40;;;;;;;15.37;85.06;96474.97;29396;208;63005;-54
2023/05/22 00:35:29;;;;;;;0.40;0.40;;;;;;;15.36;84.97;96468.69;29395;256;64013;-53
2023/05/22 00:36:00;;;;;;;0.40;0.40;;;;;;;15.35;84.68;96467.09;29396;211;63005;-54
2023/05/22 00:36:31;;;;;;;0.40;0.40;;;;;;;15.34;85.21;96470.94;29396;265;63009;-53
2023/05/22 00:37:03;;;;;;;0.40;0.40;;;;;;;15.34;85.20;96470.94;29396;207;63005;-54
2023/05/22 00:37:35;;;;;;;0.40;0.40;;;;;;;15.33;85.14;96468.56;29396;254;63009;-54
2023/05/22 00:38:25;;;;;;;0.40;0.40;;;;;;;15.33;85.25;96468.56;29396;277;63004;-58
2023/05/22 00:40:44;;;;;;;0.47;0.47;;;;;;;15.30;85.73;96467.28;88182;214;64004;-92
2023/05/22 00:41:43;;;;;;;0.50;0.50;;;;;;;15.29;86.37;96471.16;29394;243;64009;-92
2023/05/22 00:43:09;;;;;;;;;;;;;;;;;;;;;
2023/05/22 00:44:53;;;;;;;0.50;0.50;;;;;;;15.27;87.03;96470.69;29395;234;63009;-91
2023/05/22 00:46:46;;;;;;;0.50;0.50;;;;;;;15.23;87.64;96472.50;29395;212;63005;-92
2023/05/22 00:49:02;;;;;;;0.50;0.50;;;;;;;15.18;88.48;96467.22;29394;247;64013;-92
2023/05/22 00:53:50;;;;;;;0.50;0.50;;;;;;;15.06;89.36;96469.88;29394;274;64005;-91
2023/05/22 00:54:28;;;;;;;0.50;0.50;;;;;;;15.04;89.82;96469.41;29394;225;64009;-92
2023/05/22 00:55:02;;;;;;;0.50;0.50;;;;;;;15.03;89.66;96467.81;29395;214;63005;-90
2023/05/22 00:55:37;;;;;;;0.40;0.40;;;;;;;15.01;89.53;96462.66;29395;212;63009;-90
2023/05/22 00:56:09;;;;;;;0.50;0.50;;;;;;;15.01;89.40;96470.06;29395;203;63005;-89
2023/05/22 00:56:42;;;;;;;0.50;0.50;;;;;;;14.99;89.18;96469.59;29395;214;63019;-91
2023/05/22 00:57:13;;;;;;;0.50;0.50;;;;;;;14.98;89.62;96468.78;29395;208;63004;-89
2023/05/22 00:57:47;;;;;;;0.50;0.50;;;;;;;14.97;89.18;96469.12;29395;231;63009;-89
2023/05/22 00:58:20;;;;;;;0.40;0.40;;;;;;;14.96;89.31;96470.25;29394;199;64004;-89
2023/05/22 00:58:54;;;;;;;0.40;0.40;;;;;;;14.95;89.41;96472.19;29395;209;63009;-89
2023/05/22 00:59:28;;;;;;;0.40;0.40;;;;;;;14.95;89.05;96468.66;29395;221;63004;-90
2023/05/22 01:00:07;;;;;;;0.40;0.40;;;;;;;14.93;89.01;96470.91;29395;202;63008;-90
2023/05/22 01:00:41;;;;;;;0.50;0.50;;;;;;;14.93;89.07;96468.19;29395;246;63005;-89
2023/05/22 01:01:14;;;;;;;0.40;0.40;;;;;;;14.93;89.07;96473.66;29395;197;63009;-89
2023/05/22 01:01:47;;;;;;;0.40;0.40;;;;;;;14.93;89.05;96470.91;29395;211;63010;-90
2023/05/22 01:02:21;;;;;;;0.50;0.50;;;;;;;14.93;89.29;96474.44;29395;219;63009;-91
2023/05/22 01:02:53;;;;;;;0.50;0.50;;;;;;;14.92;88.91;96477.50;29395;214;63005;-90
2023/05/22 01:03:27;;;;;;;0.40;0.40;;;;;;;14.90;89.18;96466.91;29394;268;64009;-91
2023/05/22 01:04:06;;;;;;;0.50;0.50;;;;;;;14.90;88.76;96466.13;29395;228;63007;-89
2023/05/22 01:04:39;;;;;;;0.50;0.50;;;;;;;14.90;88.81;96471.59;29395;213;63009;-91
2023/05/22 01:05:11;;;;;;;0.50;0.50;;;;;;;14.89;88.85;96470.00;29395;234;63004;-90
2023/05/22 01:05:44;;;;;;;0.40;0.40;;;;;;;14.89;88.71;96475.47;29395;233;63013;-89
2023/05/22 01:06:20;;;;;;;0.40;0.40;;;;;;;14.88;88.64;96465.66;29395;202;63004;-90
2023/05/22 01:06:54;;;;;;;0.40;0.40;;;;;;;14.89;89.03;96475.47;29395;211;63009;-91
2023/05/22 01:07:25;;;;;;;0.50;0.50;;;;;;;14.89;88.85;96470.00;29394;196;64004;-90
2023/05/22 01:08:00;;;;;;;0.50;0.50;;;;;;;14.89;88.92;96470.00;29395;236;63009;-91
2023/05/22 01:08:31;;;;;;;0.47;0.47;;;;;;;14.88;89.32;96473.88;29395;306;63005;-90
2023/05/22 01:09:04;;;;;;;0.40;0.40;;;;;;;14.89;88.72;96470.00;29395;214;63009;-90
2023/05/22 01:09:35;;;;;;;0.50;0.50;;;;;;;14.89;89.00;96470.81;29395;275;63005;-89
2023/05/22 01:10:10;;;;;;;0.50;0.50;;;;;;;14.89;89.07;96470.00;29395;207;63009;-90
2023/05/22 01:10:42;;;;;;;0.50;0.50;;;;;;;14.89;89.10;96467.28;29395;236;63005;-90
2023/05/22 01:12:01;;;;;;;0.50;0.50;;;;;;;14.90;89.26;96471.59;29394;202;64009;-90
2023/05/22 01:13:01;;;;;;;0.50;0.50;;;;;;;14.89;88.79;96470.00;29395;326;63004;-92
2023/05/22 01:14:27;;;;;;;0.50;0.50;;;;;;;14.90;88.89;96475.09;29395;233;63009;-90
2023/05/22 01:15:44;;;;;;;0.50;0.50;;;;;;;14.90;88.70;96471.59;29395;232;63004;-90
2023/05/22 01:17:01;;;;;;;0.43;0.43;;;;;;;14.91;88.55;96473.19;29394;197;64009;-90
2023/05/22 01:18:18;;;;;;;0.40;0.40;;;;;;;14.90;88.10;96466.91;29394;272;64009;-89
2023/05/22 01:19:32;;;;;;;0.40;0.40;;;;;;;14.91;88.58;96473.19;29395;318;63004;-90
2023/05/22 01:20:37;;;;;;;0.40;0.40;;;;;;;14.91;88.26;96473.97;29395;198;63004;-91
2023/05/22 01:21:29;;;;;;;0.50;0.50;;;;;;;14.91;88.31;96473.19;29395;344;63009;-88
2023/05/22 01:22:39;;;;;;;0.47;0.47;;;;;;;14.90;88.23;96474.34;29395;227;63004;-89
2023/05/22 01:23:48;;;;;;;0.40;0.40;;;;;;;14.91;88.18;96475.91;29394;208;64009;-90
2023/05/22 01:25:08;;;;;;;0.50;0.50;;;;;;;14.91;88.12;96473.97;29395;202;63009;-89
2023/05/22 01:26:20;;;;;;;0.50;0.50;;;;;;;14.92;88.04;96475.56;29395;279;63005;-90
2023/05/22 01:27:34;;;;;;;0.40;0.40;;;;;;;14.93;88.25;96479.09;29394;223;63997;-88
2023/05/22 01:28:50;;;;;;;0.50;0.50;;;;;;;14.93;88.57;96485.38;29417;278;63009;-89
2023/05/22 01:29:46;;;;;;;0.50;0.50;;;;;;;14.94;87.89;96477.97;29395;210;63006;-90
2023/05/22 01:31:11;;;;;;;0.50;0.50;;;;;;;14.94;88.11;96472.53;29395;221;63014;-90
2023/05/22 01:31:52;;;;;;;0.40;0.40;;;;;;;14.95;87.99;96479.59;29394;227;64005;-90
2023/05/22 01:32:28;;;;;;;0.50;0.50;;;;;;;14.93;87.81;96481.84;29395;209;63009;-89
2023/05/22 01:33:02;;;;;;;0.50;0.50;;;;;;;14.93;87.88;96474.44;29394;230;64005;-91
2023/05/22 01:33:46;;;;;;;0.50;0.50;;;;;;;14.94;88.04;96483.44;29395;208;63009;-88
2023/05/22 01:34:22;;;;;;;0.50;0.50;;;;;;;14.93;87.96;96481.84;29395;198;63004;-89
2023/05/22 01:34:59;;;;;;;0.50;0.50;;;;;;;14.92;88.72;96482.97;29395;202;63009;-91
2023/05/22 01:35:34;;;;;;;0.50;0.50;;;;;;;14.87;89.66;96485.91;29395;260;63004;-89
2023/05/22 01:36:10;;;;;;;0.50;0.50;;;;;;;14.84;89.86;96489.31;29394;198;64009;-89
2023/05/22 01:36:46;;;;;;;0.50;0.50;;;;;;;14.79;90.42;96484.03;29395;204;63004;-91
2023/05/22 01:37:21;;;;;;;0.50;0.50;;;;;;;14.75;89.82;96492.88;29395;348;63009;-90
2023/05/22 01:37:57;;;;;;;0.40;0.40;;;;;;;14.74;89.50;96491.28;29394;202;64005;-91
2023/05/22 01:38:34;;;;;;;0.50;0.50;;;;;;;14.74;89.92;96491.28;29395;223;63009;-90
2023/05/22 01:39:07;;;;;;;0.45;0.45;;;;;;;14.73;90.13;96495.13;29395;219;63005;-89
2023/05/22 01:39:43;;;;;;;0.50;0.50;;;;;;;14.73;90.32;96486.94;29395;207;63009;-92
2023/05/22 01:40:18;;;;;;;0.40;0.40;;;;;;;14.73;90.33;96489.66;29395;210;63005;-89
2023/05/22 01:40:53;;;;;;;0.45;0.45;;;;;;;14.72;90.03;96490.81;29395;278;63009;-91
2023/05/22 01:41:27;;;;;;;0.40;0.40;;;;;;;14.71;90.23;96491.94;29395;228;63005;-89
2023/05/22 01:42:01;;;;;;;0.40;0.40;;;;;;;14.71;90.12;96491.94;29395;237;63009;-89
2023/05/22 01:42:35;;;;;;;0.50;0.50;;;;;;;14.70;90.07;96490.34;29394;219;64004;-89
2023/05/22 01:43:08;;;;;;;0.45;0.45;;;;;;;14.70;90.07;96493.06;29395;222;63009;-90
2023/05/22 01:43:42;;;;;;;0.50;0.50;;;;;;;14.70;90.17;96493.06;29395;205;63004;-89
2023/05/22 01:44:15;;;;;;;0.50;0.50;;;;;;;14.70;90.18;96495.78;29394;213;64008;-90
2023/05/22 01:44:48;;;;;;;0.50;0.50;;;;;;;14.70;90.42;96487.59;29395;229;63004;-90
2023/05/22 01:45:23;;;;;;;0.40;0.40;;;;;;;14.70;90.16;96489.53;29395;287;63009;-90
2023/05/22 01:45:54;;;;;;;0.40;0.40;;;;;;;14.69;90.32;96488.72;29395;219;63005;-88
2023/05/22 01:46:29;;;;;;;0.40;0.40;;;;;;;14.69;89.84;96494.19;29395;222;63009;-91
2023/05/22 01:47:04;;;;;;;0.40;0.40;;;;;;;14.69;90.18;96488.72;29395;197;63005;-91
2023/05/22 01:47:40;;;;;;;0.45;0.45;;;;;;;14.69;90.24;96488.72;29394;211;64009;-91
2023/05/22 01:48:12;;;;;;;0.40;0.40;;;;;;;14.69;90.07;96483.25;29395;350;63005;-90
2023/05/22 01:48:44;;;;;;;0.43;0.43;;;;;;;14.70;90.21;96490.34;29395;275;63009;-89
2023/05/22 01:49:17;;;;;;;0.40;0.40;;;;;;;14.70;90.30;96490.34;29395;295;63004;-90
2023/05/22 01:49:50;;;;;;;0.50;0.50;;;;;;;14.71;90.11;96493.88;29395;273;63009;-90
2023/05/22 01:50:25;;;;;;;0.47;0.47;;;;;;;14.71;90.26;96491.94;29395;243;63004;-91
2023/05/22 01:51:04;;;;;;;0.50;0.50;;;;;;;14.71;89.98;96485.66;29395;318;63009;-89
2023/05/22 01:52:08;;;;;;;0.40;0.40;;;;;;;14.71;89.79;96482.94;29395;223;63004;-90
2023/05/22 01:52:59;;;;;;;0.40;0.40;;;;;;;14.73;89.97;96488.88;29394;208;64009;-90
2023/05/22 01:53:43;;;;;;;0.40;0.40;;;;;;;14.73;90.10;96489.66;29395;373;63012;-91
2023/05/22 01:54:30;;;;;;;0.50;0.50;;;;;;;14.73;89.82;96494.34;29395;225;63013;-89
2023/05/22 01:55:20;;;;;;;0.40;0.40;;;;;;;14.73;89.58;96492.41;29395;208;63005;-90
2023/05/22 01:56:16;;;;;;;0.40;0.40;;;;;;;14.73;89.65;96495.13;29394;207;64026;-88
2023/05/22 01:57:11;;;;;;;0.50;0.50;;;;;;;14.73;89.60;96492.41;29394;205;64004;-90
2023/05/22 01:58:14;;;;;;;0.50;0.50;;;;;;;14.74;89.60;96490.47;29394;214;64009;-91
2023/05/22 01:58:56;;;;;;;0.50;0.50;;;;;;;14.75;89.68;96492.88;29395;348;63000;-90
2023/05/22 02:00:10;;;;;;;0.50;0.50;;;;;;;14.74;89.54;96496.75;29394;237;64008;-89
2023/05/22 02:01:02;;;;;;;0.40;0.40;;;;;;;14.75;89.38;96495.59;29395;199;63005;-90
2023/05/22 02:01:48;;;;;;;0.50;0.50;;;;;;;14.76;89.31;96493.69;29395;209;63009;-90
2023/05/22 02:02:29;;;;;;;0.50;0.50;;;;;;;14.77;89.80;96494.47;29395;229;63005;-91
2023/05/22 02:03:22;;;;;;;0.43;0.43;;;;;;;14.69;90.03;96488.72;29416;205;64009;-91
2023/05/22 02:03:57;;;;;;;0.40;0.40;;;;;;;14.76;90.22;96493.69;29395;371;63005;-90
2023/05/22 02:04:31;;;;;;;0.50;0.50;;;;;;;14.75;90.42;96498.34;29394;291;64009;-90
2023/05/22 02:05:08;;;;;;;0.40;0.40;;;;;;;14.74;90.92;96501.41;29395;229;63004;-89
2023/05/22 02:05:43;;;;;;;0.40;0.40;;;;;;;14.72;91.07;96498.19;29395;244;63009;-91
2023/05/22 02:06:19;;;;;;;0.50;0.50;;;;;;;14.70;91.30;96498.53;29394;220;64004;-92
2023/05/22 02:06:53;;;;;;;0.50;0.50;;;;;;;14.67;91.90;96499.19;29395;223;63008;-92
2023/05/22 02:07:27;;;;;;;0.50;0.50;;;;;;;14.65;91.92;96493.25;29395;219;63004;-90
2023/05/22 02:08:01;;;;;;;0.50;0.50;;;;;;;14.64;91.73;96497.09;29395;336;63009;-91
2023/05/22 02:08:37;;;;;;;0.40;0.40;;;;;;;14.63;91.93;96500.97;29395;376;63005;-91
2023/05/22 02:09:13;;;;;;;0.50;0.50;;;;;;;14.63;91.55;96500.97;29395;228;63009;-91
2023/05/22 02:09:49;;;;;;;0.50;0.50;;;;;;;14.61;91.50;96497.75;29394;198;64005;-90
2023/05/22 02:10:25;;;;;;;0.40;0.40;;;;;;;14.61;91.49;96497.75;29395;259;63009;-90
2023/05/22 02:11:00;;;;;;;0.40;0.40;;;;;;;14.61;91.38;96496.94;29395;280;63005;-91
2023/05/22 02:11:37;;;;;;;0.40;0.40;;;;;;;14.61;91.05;96494.22;29395;197;63009;-90
2023/05/22 02:12:12;;;;;;;0.50;0.50;;;;;;;14.60;91.07;96496.16;29394;254;64004;-89
2023/05/22 02:12:45;;;;;;;0.40;0.40;;;;;;;14.59;91.30;96494.53;29394;262;64009;-89
2023/05/22 02:13:18;;;;;;;0.43;0.43;;;;;;;14.60;91.12;96503.53;29395;239;63004;-88
2023/05/22 02:13:52;;;;;;;0.50;0.50;;;;;;;14.59;90.96;96491.81;29395;229;63009;-89
2023/05/22 02:14:25;;;;;;;0.45;0.45;;;;;;;14.60;90.81;96498.06;29395;213;63004;-88
2023/05/22 02:14:58;;;;;;;0.40;0.40;;;;;;;14.61;90.94;96500.47;29395;253;63008;-91
2023/05/22 02:15:32;;;;;;;0.43;0.43;;;;;;;14.60;91.08;96496.16;29395;198;63005;-89
2023/05/22 02:16:09;;;;;;;0.50;0.50;;;;;;;14.62;90.74;96498.56;29394;218;64009;-89
2023/05/22 02:16:45;;;;;;;0.50;0.50;;;;;;;14.62;90.94;96499.34;29395;310;63005;-91
2023/05/22 02:17:20;;;;;;;0.50;0.50;;;;;;;14.63;90.73;96495.50;29395;214;63009;-92
2023/05/22 02:17:53;;;;;;;0.47;0.47;;;;;;;14.63;90.42;96500.97;29394;216;64005;-90
2023/05/22 02:18:30;;;;;;;0.40;0.40;;;;;;;14.63;90.74;96495.50;29395;221;63015;-90
2023/05/22 02:19:06;;;;;;;0.40;0.40;;;;;;;14.64;90.43;96497.09;29395;222;63005;-91
2023/05/22 02:19:41;;;;;;;0.40;0.40;;;;;;;14.64;90.57;96494.37;29394;202;63998;-90
2023/05/22 02:20:15;;;;;;;0.50;0.50;;;;;;;14.65;90.59;96504.16;29395;206;63004;-91
2023/05/22 02:20:48;;;;;;;0.40;0.40;;;;;;;14.65;90.41;96498.69;29395;203;63009;-90
2023/05/22 02:21:21;;;;;;;0.47;0.47;;;;;;;14.66;90.45;96494.84;29395;206;63004;-91
2023/05/22 02:21:56;;;;;;;0.50;0.50;;;;;;;14.66;90.43;96500.31;29395;207;63008;-90
2023/05/22 02:22:30;;;;;;;0.50;0.50;;;;;;;14.68;90.52;96502.72;29395;352;63004;-91
2023/05/22 02:23:02;;;;;;;0.40;0.40;;;;;;;14.67;90.43;96496.44;29394;204;64009;-89
2023/05/22 02:23:36;;;;;;;0.40;0.40;;;;;;;14.68;90.46;96498.03;29395;203;63005;-90
2023/05/22 02:24:10;;;;;;;0.40;0.40;;;;;;;14.68;90.23;96500.78;29395;210;63009;-92
2023/05/22 02:24:55;;;;;;;0.40;0.40;;;;;;;14.68;90.32;96492.59;29395;210;63005;-91
2023/05/22 02:25:30;;;;;;;0.40;0.40;;;;;;;14.69;90.14;96504.31;29395;256;63009;-90
2023/05/22 02:26:05;;;;;;;0.40;0.40;;;;;;;14.68;90.19;96492.59;29395;209;63004;-89
2023/05/22 02:26:39;;;;;;;0.40;0.40;;;;;;;14.69;90.55;96494.19;29394;234;64009;-89
2023/05/22 02:27:13;;;;;;;0.47;0.47;;;;;;;14.68;90.53;96498.03;29395;235;63004;-90
2023/05/22 02:27:48;;;;;;;0.40;0.40;;;;;;;14.69;90.29;96493.38;29395;219;63009;-90
2023/05/22 02:28:22;;;;;;;0.45;0.45;;;;;;;14.68;90.23;96492.59;29395;216;63004;-90
2023/05/22 02:28:54;;;;;;;0.50;0.50;;;;;;;14.68;90.28;96492.59;29395;231;63008;-90
2023/05/22 02:29:25;;;;;;;0.50;0.50;;;;;;;14.69;90.50;96499.66;29395;225;63004;-92
2023/05/22 02:29:59;;;;;;;0.47;0.47;;;;;;;14.69;90.69;96496.13;29395;210;63008;-92
2023/05/22 02:30:31;;;;;;;0.40;0.40;;;;;;;14.69;90.29;96494.19;29395;206;63008;-91
2023/05/22 02:31:04;;;;;;;0.50;0.50;;;;;;;14.69;90.57;96498.84;29394;237;64009;-90
2023/05/22 02:31:35;;;;;;;0.47;0.47;;;;;;;14.67;90.09;96488.25;29395;377;63005;-92
2023/05/22 02:32:08;;;;;;;0.40;0.40;;;;;;;14.67;90.56;96493.72;29395;208;63009;-93
2023/05/22 02:32:44;;;;;;;0.40;0.40;;;;;;;14.68;90.54;96483.59;29395;212;63005;-90
2023/05/22 02:33:17;;;;;;;0.50;0.50;;;;;;;14.68;90.40;96489.84;29395;210;63009;-89
2023/05/22 02:33:50;;;;;;;0.40;0.40;;;;;;;14.69;90.51;96490.66;29395;216;63004;-89
2023/05/22 02:34:25;;;;;;;0.50;0.50;;;;;;;14.68;90.45;96487.13;29395;232;63009;-90
2023/05/22 02:34:59;;;;;;;0.50;0.50;;;;;;;14.69;90.28;96491.47;29395;253;63006;-90
2023/05/22 02:35:32;;;;;;;0.50;0.50;;;;;;;14.69;90.43;96482.47;29395;257;63009;-92
2023/05/22 02:36:09;;;;;;;0.50;0.50;;;;;;;14.70;90.32;96486.81;29394;224;64004;-91
2023/05/22 02:36:42;;;;;;;0.50;0.50;;;;;;;14.72;90.51;96488.06;29395;218;63015;-90
2023/05/22 02:37:15;;;;;;;0.50;0.50;;;;;;;14.71;90.64;96483.75;29395;221;63005;-89
2023/05/22 02:37:46;;;;;;;0.40;0.40;;;;;;;14.73;90.44;96489.66;29395;202;63009;-91
2023/05/22 02:38:17;;;;;;;0.47;0.47;;;;;;;14.74;90.39;96491.28;29394;222;64005;-90
2023/05/22 02:38:49;;;;;;;0.50;0.50;;;;;;;14.75;90.41;96487.41;29395;334;63009;-91
2023/05/22 02:39:20;;;;;;;0.40;0.40;;;;;;;14.75;90.23;96495.59;29395;208;63005;-90
2023/05/22 02:39:52;;;;;;;0.40;0.40;;;;;;;14.77;90.28;96491.75;29395;232;63009;-92
2023/05/22 02:40:24;;;;;;;0.40;0.40;;;;;;;14.77;90.24;96489.03;29395;210;63005;-90
2023/05/22 02:40:55;;;;;;;0.50;0.50;;;;;;;14.77;90.12;96495.28;29395;240;63009;-89
2023/05/22 02:41:26;;;;;;;0.40;0.40;;;;;;;14.79;89.80;96486.75;29395;236;63004;-92
2023/05/22 02:41:57;;;;;;;0.40;0.40;;;;;;;14.79;90.12;96484.03;29395;367;63009;-91
2023/05/22 02:42:29;;;;;;;0.50;0.50;;;;;;;14.79;90.05;96486.75;29395;207;63004;-90
2023/05/22 02:43:02;;;;;;;0.40;0.40;;;;;;;14.81;89.89;96489.97;29394;209;64009;-90
2023/05/22 02:43:35;;;;;;;0.40;0.40;;;;;;;14.79;90.43;96489.50;29395;233;63007;-90
2023/05/22 02:44:06;;;;;;;0.40;0.40;;;;;;;14.80;90.03;96491.09;29395;234;63008;-90
2023/05/22 02:44:38;;;;;;;0.40;0.40;;;;;;;14.81;89.95;96490.75;29395;382;63005;-91
2023/05/22 02:45:11;;;;;;;0.45;0.45;;;;;;;14.81;90.45;96484.50;29395;239;63009;-90
2023/05/22 02:45:43;;;;;;;0.47;0.47;;;;;;;14.81;89.78;96485.31;29395;197;63005;-89
2023/05/22 02:46:15;;;;;;;0.40;0.40;;;;;;;14.81;90.16;96489.97;29395;232;63009;-91
2023/05/22 02:46:49;;;;;;;0.40;0.40;;;;;;;14.81;90.30;96484.50;29395;242;63005;-90
2023/05/22 02:47:21;;;;;;;0.40;0.40;;;;;;;14.80;90.17;96486.44;29395;217;63009;-90
2023/05/22 02:47:52;;;;;;;0.40;0.40;;;;;;;14.82;90.68;96488.84;29395;202;63005;-90
2023/05/22 02:48:28;;;;;;;0.40;0.40;;;;;;;14.81;90.68;96481.78;29394;234;64009;-92
2023/05/22 02:49:02;;;;;;;0.47;0.47;;;;;;;14.82;90.83;96491.56;29395;210;63008;-90
2023/05/22 02:49:35;;;;;;;0.50;0.50;;;;;;;14.82;90.92;96484.19;29395;215;63009;-92
2023/05/22 02:50:10;;;;;;;0.40;0.40;;;;;;;14.82;91.30;96478.72;29395;292;63004;-91
2023/05/22 02:50:43;;;;;;;0.40;0.40;;;;;;;14.82;91.38;96491.56;29395;250;63009;-91
2023/05/22 02:51:15;;;;;;;0.50;0.50;;;;;;;14.83;91.72;96483.03;29395;238;63004;-90
2023/05/22 02:51:46;;;;;;;0.50;0.50;;;;;;;14.84;91.46;96486.56;29395;198;63008;-90
2023/05/22 02:52:19;;;;;;;0.40;0.40;;;;;;;14.84;91.62;96483.84;29395;285;63005;-88
2023/05/22 02:52:52;;;;;;;0.50;0.50;;;;;;;14.83;91.23;96480.31;29395;268;63009;-89
2023/05/22 02:53:24;;;;;;;0.40;0.40;;;;;;;14.83;91.06;96480.31;29394;221;64005;-78
2023/05/22 02:53:57;;;;;;;0.50;0.50;;;;;;;14.84;91.00;96486.56;29395;227;63009;-90
2023/05/22 02:54:29;;;;;;;0.50;0.50;;;;;;;14.85;90.92;96485.44;29394;222;64005;-90
2023/05/22 02:55:01;;;;;;;0.40;0.40;;;;;;;14.85;90.86;96490.91;29395;209;63009;-88
2023/05/22 02:55:32;;;;;;;0.50;0.50;;;;;;;14.85;90.68;96485.44;29395;225;63005;-90
2023/05/22 02:56:10;;;;;;;0.50;0.50;;;;;;;14.85;90.75;96483.50;29395;230;63009;-90
2023/05/22 02:56:44;;;;;;;0.50;0.50;;;;;;;14.85;90.79;96474.53;29395;283;63004;-90
2023/05/22 02:57:18;;;;;;;0.40;0.40;;;;;;;14.86;90.33;96487.06;29395;287;63009;-90
2023/05/22 02:57:49;;;;;;;0.43;0.43;;;;;;;14.87;90.72;96477.72;29395;233;63004;-89
2023/05/22 02:58:22;;;;;;;0.50;0.50;;;;;;;14.87;90.73;96480.47;29395;218;63009;-91
2023/05/22 02:58:59;;;;;;;0.50;0.50;;;;;;;14.87;91.14;96483.19;29395;280;63004;-91
2023/05/22 02:59:30;;;;;;;0.50;0.50;;;;;;;14.88;90.73;96487.53;29394;291;64009;-90
2023/05/22 03:00:10;;;;;;;0.40;0.40;;;;;;;14.88;91.57;96479.31;29395;232;63005;-90
2023/05/22 03:00:44;;;;;;;0.50;0.50;;;;;;;14.89;91.35;96489.13;29395;218;63009;-90
2023/05/22 03:01:16;;;;;;;0.40;0.40;;;;;;;14.89;91.36;96481.72;29395;222;63005;-93
2023/05/22 03:01:47;;;;;;;0.40;0.40;;;;;;;14.88;91.23;96477.41;29395;200;63009;-90
2023/05/22 03:02:19;;;;;;;0.40;0.40;;;;;;;14.89;91.44;96476.28;29395;211;63005;-90
2023/05/22 03:02:50;;;;;;;0.50;0.50;;;;;;;14.90;91.48;96482.53;29395;307;63009;-89
2023/05/22 03:03:22;;;;;;;0.40;0.40;;;;;;;14.90;91.38;96483.31;29395;212;63000;-90
2023/05/22 03:03:56;;;;;;;0.50;0.50;;;;;;;14.90;91.32;96483.31;29395;335;63009;-91
2023/05/22 03:04:28;;;;;;;0.50;0.50;;;;;;;14.91;91.11;96481.38;29394;205;64004;-91
2023/05/22 03:05:02;;;;;;;0.50;0.50;;;;;;;14.91;90.97;96478.63;29394;217;64009;-89
2023/05/22 03:05:33;;;;;;;0.50;0.50;;;;;;;14.92;90.58;96480.25;29395;197;63004;-91
2023/05/22 03:06:07;;;;;;;0.50;0.50;;;;;;;14.92;90.68;96485.72;29395;222;63009;-91
2023/05/22 03:06:45;;;;;;;0.50;0.50;;;;;;;14.92;90.25;96480.25;29395;208;63004;-89